sensor_id;sensor_type;location;lat;lon;timestamp;P1;durP1;ratioP1;P2;durP2;ratioP2
85035;SDS011;75357;49.780;9.448;2024-03-23T00:53:53;14.83;;;11.07;;
85035;SDS011;75357;49.780;9.448;2024-03-23T00:56:20;15.03;;;9.70;;
85035;SDS011;75357;49.780;9.448;2024-03-23T00:58:46;14.07;;;10.07;;
85035;SDS011;75357;49.780;9.448;2024-03-23T01:01:13;15.93;;;11.30;;
85035;SDS011;75357;49.780;9.448;2024-03-23T01:03:40;20.50;;;12.20;;
85035;SDS011;75357;49.780;9.448;2024-03-23T01:06:07;17.47;;;12.20;;
85035;SDS011;75357;49.780;9.448;2024-03-23T01:08:33;17.90;;;11.77;;
85035;SDS011;75357;49.780;9.448;2024-03-23T01:11:00;17.70;;;12.50;;
85035;SDS011;75357;49.780;9.448;2024-03-23T01:13:27;15.70;;;11.40;;
85035;SDS011;75357;49.780;9.448;2024-03-23T01:15:55;16.67;;;11.50;;
85035;SDS011;75357;49.780;9.448;2024-03-23T01:18:23;16.07;;;10.67;;
85035;SDS011;75357;49.780;9.448;2024-03-23T01:20:51;15.17;;;10.43;;
85035;SDS011;75357;49.780;9.448;2024-03-23T01:23:17;13.93;;;10.17;;
85035;SDS011;75357;49.780;9.448;2024-03-23T01:25:51;15.47;;;9.57;;
85035;SDS011;75357;49.780;9.448;2024-03-23T01:28:19;13.70;;;9.10;;
85035;SDS011;75357;49.780;9.448;2024-03-23T01:30:47;13.43;;;8.73;;
85035;SDS011;75357;49.780;9.448;2024-03-23T01:33:13;14.73;;;10.33;;
85035;SDS011;75357;49.780;9.448;2024-03-23T01:35:40;12.53;;;9.50;;
85035;SDS011;75357;49.780;9.448;2024-03-23T01:38:06;14.07;;;9.57;;
85035;SDS011;75357;49.780;9.448;2024-03-23T01:40:33;14.07;;;8.60;;
85035;SDS011;75357;49.780;9.448;2024-03-23T01:43:03;10.63;;;8.03;;
85035;SDS011;75357;49.780;9.448;2024-03-23T01:45:31;8.73;;;7.23;;
85035;SDS011;75357;49.780;9.448;2024-03-23T01:47:58;9.87;;;6.73;;
85035;SDS011;75357;49.780;9.448;2024-03-23T01:50:26;8.60;;;6.67;;
85035;SDS011;75357;49.780;9.448;2024-03-23T01:52:53;11.53;;;6.90;;
85035;SDS011;75357;49.780;9.448;2024-03-23T01:55:21;8.33;;;6.43;;
85035;SDS011;75357;49.780;9.448;2024-03-23T01:57:47;9.00;;;6.87;;
85035;SDS011;75357;49.780;9.448;2024-03-23T02:03:03;10.73;;;6.90;;
85035;SDS011;75357;49.780;9.448;2024-03-23T02:05:55;9.00;;;7.10;;
85035;SDS011;75357;49.780;9.448;2024-03-23T02:08:22;9.60;;;7.00;;
85035;SDS011;75357;49.780;9.448;2024-03-23T02:10:50;8.77;;;7.00;;
85035;SDS011;75357;49.780;9.448;2024-03-23T02:13:17;8.63;;;6.97;;
85035;SDS011;75357;49.780;9.448;2024-03-23T02:15:45;10.20;;;7.13;;
85035;SDS011;75357;49.780;9.448;2024-03-23T02:18:11;10.47;;;6.80;;
85035;SDS011;75357;49.780;9.448;2024-03-23T02:20:38;13.00;;;8.30;;
85035;SDS011;75357;49.780;9.448;2024-03-23T02:23:05;12.93;;;8.80;;
85035;SDS011;75357;49.780;9.448;2024-03-23T02:25:32;11.27;;;7.53;;
85035;SDS011;75357;49.780;9.448;2024-03-23T02:28:00;10.57;;;7.33;;
85035;SDS011;75357;49.780;9.448;2024-03-23T02:30:28;11.47;;;7.70;;
85035;SDS011;75357;49.780;9.448;2024-03-23T02:32:54;10.53;;;7.20;;
85035;SDS011;75357;49.780;9.448;2024-03-23T02:35:21;10.50;;;6.80;;
85035;SDS011;75357;49.780;9.448;2024-03-23T02:37:47;10.50;;;6.73;;
85035;SDS011;75357;49.780;9.448;2024-03-23T02:40:15;8.10;;;6.30;;
85035;SDS011;75357;49.780;9.448;2024-03-23T02:42:42;9.50;;;6.20;;
85035;SDS011;75357;49.780;9.448;2024-03-23T02:45:09;9.67;;;6.43;;
85035;SDS011;75357;49.780;9.448;2024-03-23T02:47:35;7.70;;;5.73;;
85035;SDS011;75357;49.780;9.448;2024-03-23T02:50:02;7.93;;;5.80;;
85035;SDS011;75357;49.780;9.448;2024-03-23T02:52:30;7.83;;;6.10;;
85035;SDS011;75357;49.780;9.448;2024-03-23T02:54:57;8.90;;;5.80;;
85035;SDS011;75357;49.780;9.448;2024-03-23T02:57:23;8.83;;;5.67;;
85035;SDS011;75357;49.780;9.448;2024-03-23T02:59:50;8.43;;;6.07;;
85035;SDS011;75357;49.780;9.448;2024-03-23T03:02:16;8.27;;;6.13;;
85035;SDS011;75357;49.780;9.448;2024-03-23T03:04:44;9.37;;;6.57;;
85035;SDS011;75357;49.780;9.448;2024-03-23T03:07:10;8.97;;;6.83;;
85035;SDS011;75357;49.780;9.448;2024-03-23T03:09:37;10.33;;;7.17;;
85035;SDS011;75357;49.780;9.448;2024-03-23T03:12:05;8.90;;;6.80;;
85035;SDS011;75357;49.780;9.448;2024-03-23T03:14:32;8.77;;;6.50;;
85035;SDS011;75357;49.780;9.448;2024-03-23T03:16:59;12.03;;;7.07;;
85035;SDS011;75357;49.780;9.448;2024-03-23T03:19:27;9.77;;;7.20;;
85035;SDS011;75357;49.780;9.448;2024-03-23T03:21:53;12.30;;;7.97;;
85035;SDS011;75357;49.780;9.448;2024-03-23T03:24:21;13.60;;;8.27;;
85035;SDS011;75357;49.780;9.448;2024-03-23T03:26:47;12.43;;;8.17;;
85035;SDS011;75357;49.780;9.448;2024-03-23T03:29:15;11.90;;;8.00;;
85035;SDS011;75357;49.780;9.448;2024-03-23T03:31:42;10.43;;;7.70;;
85035;SDS011;75357;49.780;9.448;2024-03-23T03:34:10;10.10;;;8.13;;
85035;SDS011;75357;49.780;9.448;2024-03-23T03:36:36;10.67;;;8.43;;
85035;SDS011;75357;49.780;9.448;2024-03-23T03:39:03;12.03;;;8.27;;
85035;SDS011;75357;49.780;9.448;2024-03-23T03:41:31;10.77;;;8.40;;
85035;SDS011;75357;49.780;9.448;2024-03-23T03:43:58;12.20;;;7.80;;
85035;SDS011;75357;49.780;9.448;2024-03-23T03:46:27;11.17;;;8.13;;
85035;SDS011;75357;49.780;9.448;2024-03-23T03:48:55;11.73;;;7.67;;
85035;SDS011;75357;49.780;9.448;2024-03-23T03:51:21;13.10;;;8.13;;
85035;SDS011;75357;49.780;9.448;2024-03-23T03:53:48;10.13;;;8.17;;
85035;SDS011;75357;49.780;9.448;2024-03-23T03:56:14;10.70;;;8.07;;
85035;SDS011;75357;49.780;9.448;2024-03-23T03:58:41;11.00;;;7.87;;
85035;SDS011;75357;49.780;9.448;2024-03-23T04:01:08;11.87;;;8.50;;
85035;SDS011;75357;49.780;9.448;2024-03-23T04:03:35;15.03;;;8.40;;
85035;SDS011;75357;49.780;9.448;2024-03-23T04:06:01;12.73;;;8.20;;
85035;SDS011;75357;49.780;9.448;2024-03-23T04:08:28;11.90;;;8.07;;
85035;SDS011;75357;49.780;9.448;2024-03-23T04:10:54;8.77;;;6.90;;
85035;SDS011;75357;49.780;9.448;2024-03-23T04:13:21;9.27;;;7.87;;
85035;SDS011;75357;49.780;9.448;2024-03-23T04:15:47;11.97;;;8.77;;
85035;SDS011;75357;49.780;9.448;2024-03-23T04:18:15;12.63;;;8.27;;
85035;SDS011;75357;49.780;9.448;2024-03-23T04:20:41;13.17;;;8.00;;
85035;SDS011;75357;49.780;9.448;2024-03-23T04:23:08;8.23;;;6.77;;
85035;SDS011;75357;49.780;9.448;2024-03-23T04:25:34;9.47;;;6.87;;
85035;SDS011;75357;49.780;9.448;2024-03-23T04:28:01;12.00;;;7.50;;
85035;SDS011;75357;49.780;9.448;2024-03-23T04:30:28;11.57;;;6.57;;
85035;SDS011;75357;49.780;9.448;2024-03-23T04:32:55;10.57;;;7.50;;
85035;SDS011;75357;49.780;9.448;2024-03-23T04:35:22;8.93;;;6.83;;
85035;SDS011;75357;49.780;9.448;2024-03-23T04:37:50;8.77;;;7.20;;
85035;SDS011;75357;49.780;9.448;2024-03-23T04:40:19;11.23;;;8.47;;
85035;SDS011;75357;49.780;9.448;2024-03-23T04:42:46;10.93;;;8.33;;
85035;SDS011;75357;49.780;9.448;2024-03-23T04:45:13;13.30;;;9.10;;
85035;SDS011;75357;49.780;9.448;2024-03-23T04:47:40;14.23;;;10.37;;
85035;SDS011;75357;49.780;9.448;2024-03-23T04:50:08;15.20;;;9.97;;
85035;SDS011;75357;49.780;9.448;2024-03-23T04:52:36;13.93;;;8.90;;
85035;SDS011;75357;49.780;9.448;2024-03-23T04:55:03;15.20;;;9.73;;
85035;SDS011;75357;49.780;9.448;2024-03-23T04:57:30;13.73;;;9.17;;
85035;SDS011;75357;49.780;9.448;2024-03-23T04:59:57;14.10;;;10.07;;
85035;SDS011;75357;49.780;9.448;2024-03-23T05:02:23;14.17;;;9.63;;
85035;SDS011;75357;49.780;9.448;2024-03-23T05:04:52;16.60;;;10.20;;
85035;SDS011;75357;49.780;9.448;2024-03-23T05:07:18;15.33;;;9.90;;
85035;SDS011;75357;49.780;9.448;2024-03-23T05:09:46;14.20;;;9.83;;
85035;SDS011;75357;49.780;9.448;2024-03-23T05:12:14;13.00;;;9.87;;
85035;SDS011;75357;49.780;9.448;2024-03-23T05:14:41;14.20;;;9.47;;
85035;SDS011;75357;49.780;9.448;2024-03-23T05:17:07;14.17;;;9.50;;
85035;SDS011;75357;49.780;9.448;2024-03-23T05:19:34;15.77;;;9.20;;
85035;SDS011;75357;49.780;9.448;2024-03-23T05:22:00;16.33;;;10.17;;
85035;SDS011;75357;49.780;9.448;2024-03-23T05:24:27;13.17;;;8.83;;
85035;SDS011;75357;49.780;9.448;2024-03-23T05:26:54;11.63;;;7.20;;
85035;SDS011;75357;49.780;9.448;2024-03-23T05:29:24;11.63;;;8.13;;
85035;SDS011;75357;49.780;9.448;2024-03-23T05:31:51;9.70;;;7.10;;
85035;SDS011;75357;49.780;9.448;2024-03-23T05:34:18;7.47;;;5.23;;
85035;SDS011;75357;49.780;9.448;2024-03-23T05:36:44;8.20;;;6.00;;
85035;SDS011;75357;49.780;9.448;2024-03-23T05:39:11;8.83;;;5.77;;
85035;SDS011;75357;49.780;9.448;2024-03-23T05:41:37;9.23;;;6.27;;
85035;SDS011;75357;49.780;9.448;2024-03-23T05:44:04;6.43;;;4.53;;
85035;SDS011;75357;49.780;9.448;2024-03-23T05:46:31;10.57;;;7.40;;
85035;SDS011;75357;49.780;9.448;2024-03-23T05:49:00;10.03;;;6.33;;
85035;SDS011;75357;49.780;9.448;2024-03-23T05:51:27;10.37;;;6.20;;
85035;SDS011;75357;49.780;9.448;2024-03-23T05:53:54;10.87;;;8.70;;
85035;SDS011;75357;49.780;9.448;2024-03-23T05:56:20;12.50;;;6.87;;
85035;SDS011;75357;49.780;9.448;2024-03-23T05:58:48;13.57;;;9.10;;
85035;SDS011;75357;49.780;9.448;2024-03-23T06:01:14;12.00;;;8.80;;
85035;SDS011;75357;49.780;9.448;2024-03-23T06:03:41;9.53;;;6.97;;
85035;SDS011;75357;49.780;9.448;2024-03-23T06:06:09;7.17;;;4.80;;
85035;SDS011;75357;49.780;9.448;2024-03-23T06:08:38;6.33;;;3.77;;
85035;SDS011;75357;49.780;9.448;2024-03-23T06:11:04;6.40;;;4.63;;
85035;SDS011;75357;49.780;9.448;2024-03-23T06:13:32;4.73;;;3.20;;
85035;SDS011;75357;49.780;9.448;2024-03-23T06:15:59;5.57;;;3.43;;
85035;SDS011;75357;49.780;9.448;2024-03-23T06:18:27;4.07;;;2.83;;
85035;SDS011;75357;49.780;9.448;2024-03-23T06:20:53;4.87;;;3.47;;
85035;SDS011;75357;49.780;9.448;2024-03-23T06:23:20;5.33;;;3.93;;
85035;SDS011;75357;49.780;9.448;2024-03-23T06:25:47;2.90;;;2.50;;
85035;SDS011;75357;49.780;9.448;2024-03-23T06:28:14;2.63;;;2.20;;
85035;SDS011;75357;49.780;9.448;2024-03-23T06:30:40;2.30;;;1.70;;
85035;SDS011;75357;49.780;9.448;2024-03-23T06:33:07;2.50;;;1.60;;
85035;SDS011;75357;49.780;9.448;2024-03-23T06:35:34;2.00;;;1.50;;
85035;SDS011;75357;49.780;9.448;2024-03-23T06:38:01;2.23;;;1.67;;
85035;SDS011;75357;49.780;9.448;2024-03-23T06:40:27;3.93;;;2.10;;
85035;SDS011;75357;49.780;9.448;2024-03-23T06:42:54;2.17;;;1.67;;
85035;SDS011;75357;49.780;9.448;2024-03-23T06:45:20;1.77;;;1.57;;
85035;SDS011;75357;49.780;9.448;2024-03-23T06:47:49;2.77;;;1.87;;
85035;SDS011;75357;49.780;9.448;2024-03-23T06:50:15;2.23;;;1.57;;
85035;SDS011;75357;49.780;9.448;2024-03-23T06:52:42;2.20;;;1.70;;
85035;SDS011;75357;49.780;9.448;2024-03-23T06:55:08;2.67;;;1.80;;
85035;SDS011;75357;49.780;9.448;2024-03-23T06:57:35;1.73;;;1.47;;
85035;SDS011;75357;49.780;9.448;2024-03-23T07:00:02;3.43;;;2.43;;
85035;SDS011;75357;49.780;9.448;2024-03-23T07:02:29;2.47;;;1.67;;
85035;SDS011;75357;49.780;9.448;2024-03-23T07:04:55;3.00;;;1.77;;
85035;SDS011;75357;49.780;9.448;2024-03-23T07:07:22;1.80;;;1.60;;
85035;SDS011;75357;49.780;9.448;2024-03-23T07:09:48;1.57;;;1.47;;
85035;SDS011;75357;49.780;9.448;2024-03-23T07:12:16;1.90;;;1.57;;
85035;SDS011;75357;49.780;9.448;2024-03-23T07:14:42;2.50;;;2.30;;
85035;SDS011;75357;49.780;9.448;2024-03-23T07:17:09;1.80;;;1.60;;
85035;SDS011;75357;49.780;9.448;2024-03-23T07:19:36;2.77;;;2.23;;
85035;SDS011;75357;49.780;9.448;2024-03-23T07:22:03;2.07;;;1.87;;
85035;SDS011;75357;49.780;9.448;2024-03-23T07:24:30;2.27;;;1.70;;
85035;SDS011;75357;49.780;9.448;2024-03-23T07:26:58;2.10;;;1.90;;
85035;SDS011;75357;49.780;9.448;2024-03-23T07:29:24;2.67;;;1.87;;
85035;SDS011;75357;49.780;9.448;2024-03-23T07:31:51;1.97;;;1.73;;
85035;SDS011;75357;49.780;9.448;2024-03-23T07:34:17;2.67;;;2.13;;
85035;SDS011;75357;49.780;9.448;2024-03-23T07:36:45;3.83;;;2.20;;
85035;SDS011;75357;49.780;9.448;2024-03-23T07:39:11;2.63;;;1.90;;
85035;SDS011;75357;49.780;9.448;2024-03-23T07:41:38;2.33;;;1.93;;
85035;SDS011;75357;49.780;9.448;2024-03-23T07:44:04;3.10;;;2.47;;
85035;SDS011;75357;49.780;9.448;2024-03-23T07:46:31;2.60;;;1.90;;
85035;SDS011;75357;49.780;9.448;2024-03-23T07:48:58;3.10;;;2.03;;
85035;SDS011;75357;49.780;9.448;2024-03-23T07:51:25;2.17;;;1.93;;
85035;SDS011;75357;49.780;9.448;2024-03-23T07:53:51;2.43;;;2.10;;
85035;SDS011;75357;49.780;9.448;2024-03-23T07:56:19;3.17;;;2.20;;
85035;SDS011;75357;49.780;9.448;2024-03-23T07:58:45;2.17;;;1.33;;
85035;SDS011;75357;49.780;9.448;2024-03-23T08:01:14;2.47;;;1.60;;
85035;SDS011;75357;49.780;9.448;2024-03-23T08:03:42;2.30;;;2.03;;
85035;SDS011;75357;49.780;9.448;2024-03-23T08:06:18;2.10;;;1.77;;
85035;SDS011;75357;49.780;9.448;2024-03-23T08:08:47;1.90;;;1.50;;
85035;SDS011;75357;49.780;9.448;2024-03-23T08:11:16;1.53;;;1.43;;
85035;SDS011;75357;49.780;9.448;2024-03-23T08:13:42;1.93;;;1.43;;
85035;SDS011;75357;49.780;9.448;2024-03-23T08:16:12;1.47;;;1.13;;
85035;SDS011;75357;49.780;9.448;2024-03-23T08:18:39;2.13;;;1.37;;
85035;SDS011;75357;49.780;9.448;2024-03-23T08:21:07;2.00;;;1.37;;
85035;SDS011;75357;49.780;9.448;2024-03-23T08:23:34;1.20;;;0.80;;
85035;SDS011;75357;49.780;9.448;2024-03-23T08:26:07;2.83;;;1.43;;
85035;SDS011;75357;49.780;9.448;2024-03-23T08:28:34;2.53;;;0.87;;
85035;SDS011;75357;49.780;9.448;2024-03-23T08:31:12;1.87;;;1.30;;
85035;SDS011;75357;49.780;9.448;2024-03-23T08:33:40;2.53;;;1.30;;
85035;SDS011;75357;49.780;9.448;2024-03-23T08:36:09;1.17;;;0.97;;
85035;SDS011;75357;49.780;9.448;2024-03-23T08:38:37;1.87;;;1.10;;
85035;SDS011;75357;49.780;9.448;2024-03-23T08:41:05;1.23;;;0.83;;
85035;SDS011;75357;49.780;9.448;2024-03-23T08:43:35;1.27;;;1.00;;
85035;SDS011;75357;49.780;9.448;2024-03-23T08:48:31;1.00;;;0.90;;
85035;SDS011;75357;49.780;9.448;2024-03-23T08:51:06;3.00;;;1.10;;
85035;SDS011;75357;49.780;9.448;2024-03-23T08:53:33;1.53;;;1.00;;
85035;SDS011;75357;49.780;9.448;2024-03-23T08:56:03;2.30;;;1.20;;
85035;SDS011;75357;49.780;9.448;2024-03-23T08:58:31;1.90;;;1.50;;
85035;SDS011;75357;49.780;9.448;2024-03-23T09:01:03;3.73;;;2.13;;
85035;SDS011;75357;49.780;9.448;2024-03-23T09:03:31;4.23;;;1.47;;
85035;SDS011;75357;49.780;9.448;2024-03-23T09:05:59;3.00;;;2.00;;
85035;SDS011;75357;49.780;9.448;2024-03-23T09:08:25;2.07;;;1.40;;
85035;SDS011;75357;49.780;9.448;2024-03-23T09:10:52;2.43;;;1.47;;
85035;SDS011;75357;49.780;9.448;2024-03-23T09:13:18;2.60;;;1.20;;
85035;SDS011;75357;49.780;9.448;2024-03-23T09:15:46;2.50;;;1.40;;
85035;SDS011;75357;49.780;9.448;2024-03-23T09:18:14;4.97;;;2.30;;
85035;SDS011;75357;49.780;9.448;2024-03-23T09:20:41;4.30;;;1.60;;
85035;SDS011;75357;49.780;9.448;2024-03-23T09:23:07;3.73;;;2.10;;
85035;SDS011;75357;49.780;9.448;2024-03-23T09:25:38;3.83;;;2.33;;
85035;SDS011;75357;49.780;9.448;2024-03-23T09:28:05;6.17;;;2.40;;
85035;SDS011;75357;49.780;9.448;2024-03-23T09:30:34;2.90;;;1.60;;
85035;SDS011;75357;49.780;9.448;2024-03-23T09:33:00;3.23;;;1.60;;
85035;SDS011;75357;49.780;9.448;2024-03-23T09:35:27;7.73;;;2.30;;
85035;SDS011;75357;49.780;9.448;2024-03-23T09:37:53;3.60;;;1.70;;
85035;SDS011;75357;49.780;9.448;2024-03-23T09:40:22;5.20;;;2.30;;
85035;SDS011;75357;49.780;9.448;2024-03-23T09:42:51;7.90;;;2.20;;
85035;SDS011;75357;49.780;9.448;2024-03-23T09:45:23;5.73;;;2.40;;
85035;SDS011;75357;49.780;9.448;2024-03-23T09:47:52;7.13;;;2.40;;
85035;SDS011;75357;49.780;9.448;2024-03-23T09:50:21;5.77;;;2.27;;
85035;SDS011;75357;49.780;9.448;2024-03-23T09:52:47;5.03;;;2.73;;
85035;SDS011;75357;49.780;9.448;2024-03-23T09:55:15;5.77;;;2.30;;
85035;SDS011;75357;49.780;9.448;2024-03-23T09:57:42;5.63;;;2.20;;
85035;SDS011;75357;49.780;9.448;2024-03-23T10:00:09;5.13;;;2.30;;
85035;SDS011;75357;49.780;9.448;2024-03-23T10:02:37;5.13;;;1.90;;
85035;SDS011;75357;49.780;9.448;2024-03-23T10:05:05;3.73;;;1.67;;
85035;SDS011;75357;49.780;9.448;2024-03-23T10:07:47;5.37;;;2.40;;
85035;SDS011;75357;49.780;9.448;2024-03-23T10:10:15;3.87;;;2.40;;
85035;SDS011;75357;49.780;9.448;2024-03-23T10:12:45;6.93;;;2.77;;
85035;SDS011;75357;49.780;9.448;2024-03-23T10:17:45;3.20;;;1.60;;
85035;SDS011;75357;49.780;9.448;2024-03-23T10:20:13;5.87;;;2.47;;
85035;SDS011;75357;49.780;9.448;2024-03-23T10:22:46;3.90;;;1.83;;
85035;SDS011;75357;49.780;9.448;2024-03-23T10:25:13;5.03;;;2.30;;
85035;SDS011;75357;49.780;9.448;2024-03-23T10:27:39;5.10;;;2.13;;
85035;SDS011;75357;49.780;9.448;2024-03-23T10:30:12;4.90;;;2.10;;
85035;SDS011;75357;49.780;9.448;2024-03-23T10:32:40;5.67;;;2.70;;
85035;SDS011;75357;49.780;9.448;2024-03-23T10:35:17;3.30;;;1.97;;
85035;SDS011;75357;49.780;9.448;2024-03-23T10:37:45;7.27;;;2.47;;
85035;SDS011;75357;49.780;9.448;2024-03-23T10:40:13;5.30;;;2.73;;
85035;SDS011;75357;49.780;9.448;2024-03-23T10:42:39;7.30;;;2.70;;
85035;SDS011;75357;49.780;9.448;2024-03-23T10:45:06;7.10;;;3.03;;
85035;SDS011;75357;49.780;9.448;2024-03-23T10:47:34;6.17;;;2.67;;
85035;SDS011;75357;49.780;9.448;2024-03-23T10:50:05;5.00;;;2.00;;
85035;SDS011;75357;49.780;9.448;2024-03-23T10:52:33;6.57;;;2.47;;
85035;SDS011;75357;49.780;9.448;2024-03-23T10:55:06;4.73;;;2.43;;
85035;SDS011;75357;49.780;9.448;2024-03-23T10:57:42;3.50;;;1.50;;
85035;SDS011;75357;49.780;9.448;2024-03-23T11:00:15;6.90;;;2.47;;
85035;SDS011;75357;49.780;9.448;2024-03-23T11:02:42;6.40;;;2.30;;
85035;SDS011;75357;49.780;9.448;2024-03-23T11:07:53;5.80;;;2.20;;
85035;SDS011;75357;49.780;9.448;2024-03-23T11:10:25;6.90;;;2.33;;
85035;SDS011;75357;49.780;9.448;2024-03-23T11:12:53;5.97;;;2.23;;
85035;SDS011;75357;49.780;9.448;2024-03-23T11:15:20;5.77;;;2.50;;
85035;SDS011;75357;49.780;9.448;2024-03-23T11:18:06;7.67;;;2.50;;
85035;SDS011;75357;49.780;9.448;2024-03-23T11:20:34;4.17;;;2.17;;
85035;SDS011;75357;49.780;9.448;2024-03-23T11:23:01;10.40;;;2.90;;
85035;SDS011;75357;49.780;9.448;2024-03-23T11:25:29;5.97;;;2.10;;
85035;SDS011;75357;49.780;9.448;2024-03-23T11:27:56;6.33;;;2.20;;
85035;SDS011;75357;49.780;9.448;2024-03-23T11:30:25;4.60;;;2.20;;
85035;SDS011;75357;49.780;9.448;2024-03-23T11:32:54;7.00;;;2.33;;
85035;SDS011;75357;49.780;9.448;2024-03-23T11:35:29;3.53;;;1.63;;
85035;SDS011;75357;49.780;9.448;2024-03-23T11:38:05;3.83;;;1.77;;
85035;SDS011;75357;49.780;9.448;2024-03-23T11:40:36;3.67;;;1.53;;
85035;SDS011;75357;49.780;9.448;2024-03-23T11:43:07;5.47;;;2.27;;
85035;SDS011;75357;49.780;9.448;2024-03-23T11:45:37;4.30;;;2.60;;
85035;SDS011;75357;49.780;9.448;2024-03-23T11:48:05;3.07;;;2.03;;
85035;SDS011;75357;49.780;9.448;2024-03-23T11:50:36;6.50;;;2.50;;
85035;SDS011;75357;49.780;9.448;2024-03-23T11:55:43;9.97;;;5.67;;
85035;SDS011;75357;49.780;9.448;2024-03-23T11:58:14;4.13;;;2.43;;
85035;SDS011;75357;49.780;9.448;2024-03-23T12:00:49;8.70;;;4.87;;
85035;SDS011;75357;49.780;9.448;2024-03-23T12:03:21;3.97;;;1.70;;
85035;SDS011;75357;49.780;9.448;2024-03-23T12:05:51;8.17;;;3.47;;
85035;SDS011;75357;49.780;9.448;2024-03-23T12:08:42;2.63;;;1.80;;
85035;SDS011;75357;49.780;9.448;2024-03-23T12:11:13;4.57;;;1.70;;
85035;SDS011;75357;49.780;9.448;2024-03-23T12:13:44;4.17;;;1.60;;
85035;SDS011;75357;49.780;9.448;2024-03-23T12:16:14;3.03;;;1.77;;
85035;SDS011;75357;49.780;9.448;2024-03-23T12:18:46;3.90;;;1.90;;
85035;SDS011;75357;49.780;9.448;2024-03-23T12:21:16;3.67;;;1.60;;
85035;SDS011;75357;49.780;9.448;2024-03-23T12:23:43;3.97;;;1.53;;
85035;SDS011;75357;49.780;9.448;2024-03-23T12:26:12;3.83;;;1.50;;
85035;SDS011;75357;49.780;9.448;2024-03-23T12:28:38;4.83;;;1.70;;
85035;SDS011;75357;49.780;9.448;2024-03-23T12:31:06;6.27;;;2.63;;
85035;SDS011;75357;49.780;9.448;2024-03-23T12:33:32;4.23;;;1.50;;
85035;SDS011;75357;49.780;9.448;2024-03-23T12:35:59;7.43;;;2.40;;
85035;SDS011;75357;49.780;9.448;2024-03-23T12:38:26;3.00;;;1.50;;
85035;SDS011;75357;49.780;9.448;2024-03-23T12:40:53;6.63;;;1.90;;
85035;SDS011;75357;49.780;9.448;2024-03-23T12:43:19;2.83;;;1.70;;
85035;SDS011;75357;49.780;9.448;2024-03-23T12:45:47;4.53;;;1.60;;
85035;SDS011;75357;49.780;9.448;2024-03-23T12:48:13;3.80;;;1.93;;
85035;SDS011;75357;49.780;9.448;2024-03-23T12:50:41;2.43;;;1.10;;
85035;SDS011;75357;49.780;9.448;2024-03-23T12:53:07;2.53;;;1.50;;
85035;SDS011;75357;49.780;9.448;2024-03-23T12:55:34;5.47;;;1.80;;
85035;SDS011;75357;49.780;9.448;2024-03-23T12:58:01;3.57;;;1.40;;
85035;SDS011;75357;49.780;9.448;2024-03-23T13:00:28;4.73;;;1.73;;
85035;SDS011;75357;49.780;9.448;2024-03-23T13:02:54;5.03;;;1.87;;
85035;SDS011;75357;49.780;9.448;2024-03-23T13:05:21;2.67;;;1.27;;
85035;SDS011;75357;49.780;9.448;2024-03-23T13:07:48;7.03;;;1.90;;
85035;SDS011;75357;49.780;9.448;2024-03-23T13:10:15;4.57;;;1.83;;
85035;SDS011;75357;49.780;9.448;2024-03-23T13:12:41;5.00;;;2.03;;
85035;SDS011;75357;49.780;9.448;2024-03-23T13:15:08;2.23;;;1.50;;
85035;SDS011;75357;49.780;9.448;2024-03-23T13:17:34;3.80;;;1.53;;
85035;SDS011;75357;49.780;9.448;2024-03-23T13:20:02;4.87;;;2.30;;
85035;SDS011;75357;49.780;9.448;2024-03-23T13:22:29;13.03;;;5.03;;
85035;SDS011;75357;49.780;9.448;2024-03-23T13:24:57;3.63;;;2.00;;
85035;SDS011;75357;49.780;9.448;2024-03-23T13:27:25;3.37;;;1.87;;
85035;SDS011;75357;49.780;9.448;2024-03-23T13:29:52;4.63;;;1.90;;
85035;SDS011;75357;49.780;9.448;2024-03-23T13:32:18;5.90;;;1.40;;
85035;SDS011;75357;49.780;9.448;2024-03-23T13:34:46;4.27;;;2.30;;
85035;SDS011;75357;49.780;9.448;2024-03-23T13:37:15;4.67;;;2.30;;
85035;SDS011;75357;49.780;9.448;2024-03-23T13:39:43;4.83;;;2.13;;
85035;SDS011;75357;49.780;9.448;2024-03-23T13:42:09;5.63;;;2.33;;
85035;SDS011;75357;49.780;9.448;2024-03-23T13:44:38;4.37;;;1.87;;
85035;SDS011;75357;49.780;9.448;2024-03-23T13:47:05;3.33;;;2.17;;
85035;SDS011;75357;49.780;9.448;2024-03-23T13:49:31;4.30;;;2.10;;
85035;SDS011;75357;49.780;9.448;2024-03-23T13:51:58;3.93;;;1.70;;
85035;SDS011;75357;49.780;9.448;2024-03-23T13:54:25;4.57;;;1.80;;
85035;SDS011;75357;49.780;9.448;2024-03-23T13:56:56;3.97;;;1.93;;
85035;SDS011;75357;49.780;9.448;2024-03-23T13:59:23;3.27;;;1.70;;
85035;SDS011;75357;49.780;9.448;2024-03-23T14:01:50;2.93;;;1.67;;
85035;SDS011;75357;49.780;9.448;2024-03-23T14:04:17;2.23;;;1.23;;
85035;SDS011;75357;49.780;9.448;2024-03-23T14:06:45;4.33;;;1.97;;
85035;SDS011;75357;49.780;9.448;2024-03-23T14:09:12;2.97;;;1.40;;
85035;SDS011;75357;49.780;9.448;2024-03-23T14:11:40;3.57;;;1.87;;
85035;SDS011;75357;49.780;9.448;2024-03-23T14:14:08;3.37;;;1.57;;
85035;SDS011;75357;49.780;9.448;2024-03-23T14:16:36;2.90;;;1.73;;
85035;SDS011;75357;49.780;9.448;2024-03-23T14:19:02;2.47;;;1.30;;
85035;SDS011;75357;49.780;9.448;2024-03-23T14:21:31;4.10;;;1.70;;
85035;SDS011;75357;49.780;9.448;2024-03-23T14:23:57;2.17;;;1.50;;
85035;SDS011;75357;49.780;9.448;2024-03-23T14:26:26;1.30;;;1.03;;
85035;SDS011;75357;49.780;9.448;2024-03-23T14:28:53;2.50;;;1.40;;
85035;SDS011;75357;49.780;9.448;2024-03-23T14:31:20;3.67;;;1.50;;
85035;SDS011;75357;49.780;9.448;2024-03-23T14:33:47;4.83;;;1.40;;
85035;SDS011;75357;49.780;9.448;2024-03-23T14:36:16;3.20;;;1.43;;
85035;SDS011;75357;49.780;9.448;2024-03-23T14:38:46;2.57;;;1.20;;
85035;SDS011;75357;49.780;9.448;2024-03-23T14:41:14;1.70;;;1.27;;
85035;SDS011;75357;49.780;9.448;2024-03-23T14:43:41;1.73;;;1.40;;
85035;SDS011;75357;49.780;9.448;2024-03-23T14:46:10;2.07;;;1.37;;
85035;SDS011;75357;49.780;9.448;2024-03-23T14:48:40;5.50;;;1.77;;
85035;SDS011;75357;49.780;9.448;2024-03-23T14:51:09;2.20;;;1.60;;
85035;SDS011;75357;49.780;9.448;2024-03-23T14:53:37;2.87;;;1.50;;
85035;SDS011;75357;49.780;9.448;2024-03-23T14:56:08;2.93;;;1.73;;
85035;SDS011;75357;49.780;9.448;2024-03-23T14:58:37;2.23;;;1.10;;
85035;SDS011;75357;49.780;9.448;2024-03-23T15:01:05;2.30;;;1.20;;
85035;SDS011;75357;49.780;9.448;2024-03-23T15:03:34;2.10;;;1.30;;
85035;SDS011;75357;49.780;9.448;2024-03-23T15:06:02;2.00;;;1.07;;
85035;SDS011;75357;49.780;9.448;2024-03-23T15:08:28;1.50;;;0.90;;
85035;SDS011;75357;49.780;9.448;2024-03-23T15:10:59;2.47;;;1.20;;
85035;SDS011;75357;49.780;9.448;2024-03-23T15:13:36;1.97;;;1.10;;
85035;SDS011;75357;49.780;9.448;2024-03-23T15:16:04;1.20;;;1.10;;
85035;SDS011;75357;49.780;9.448;2024-03-23T15:18:31;3.13;;;1.00;;
85035;SDS011;75357;49.780;9.448;2024-03-23T15:21:03;2.23;;;1.20;;
85035;SDS011;75357;49.780;9.448;2024-03-23T15:23:31;1.73;;;0.90;;
85035;SDS011;75357;49.780;9.448;2024-03-23T15:25:59;4.03;;;1.60;;
85035;SDS011;75357;49.780;9.448;2024-03-23T15:28:27;1.77;;;1.00;;
85035;SDS011;75357;49.780;9.448;2024-03-23T15:31:03;2.93;;;1.43;;
85035;SDS011;75357;49.780;9.448;2024-03-23T15:33:30;1.73;;;0.97;;
85035;SDS011;75357;49.780;9.448;2024-03-23T15:36:00;5.80;;;1.50;;
85035;SDS011;75357;49.780;9.448;2024-03-23T15:38:33;1.83;;;0.80;;
85035;SDS011;75357;49.780;9.448;2024-03-23T15:41:00;2.60;;;0.70;;
85035;SDS011;75357;49.780;9.448;2024-03-23T15:43:27;2.30;;;1.00;;
85035;SDS011;75357;49.780;9.448;2024-03-23T15:45:57;2.87;;;1.20;;
85035;SDS011;75357;49.780;9.448;2024-03-23T15:48:28;0.97;;;0.70;;
85035;SDS011;75357;49.780;9.448;2024-03-23T15:50:57;0.87;;;0.70;;
85035;SDS011;75357;49.780;9.448;2024-03-23T15:53:25;1.40;;;0.73;;